Doris, Iowa
Current Conditions -  °F | °C
As of 12:15 PM on Thursday 23 Oct 2014 (Local Time) from KIIB Reporting Station
Haze Haze  
Wind Chill: 46°   Ceiling: 900
Heat Index: 48°   Visibility: 5mi
Dew Point: 46°   Wind: 6mph
Humidity: 93%   Direction: 160°SSE
Pressure: 30.05"   Gusts: NA
Location:  42.46°N, 91.7742°W
Report Text: KIIB 231715Z AUTO 16005KT 5SM BR OVC009 09/08 A3005 RMK AO2 P0001
Loading
Personal Weather Stations






























Interactive Weather Map
Tropical Storm Tracking
New forecast layout! Learn more

10-Day Weather Forecast

Advertisements
Track Severe Weather on mobile